sensor_id;sensor_type;location;lat;lon;timestamp;P1;durP1;ratioP1;P2;durP2;ratioP2
45730;SDS011;31440;48.584;13.460;2023-04-23T00:00:29;1.00;;;1.00;;
45730;SDS011;31440;48.584;13.460;2023-04-23T00:03:34;0.80;;;0.80;;
45730;SDS011;31440;48.584;13.460;2023-04-23T00:06:41;0.77;;;0.77;;
45730;SDS011;31440;48.584;13.460;2023-04-23T00:12:52;0.90;;;0.90;;
45730;SDS011;31440;48.584;13.460;2023-04-23T00:15:57;0.98;;;0.98;;
45730;SDS011;31440;48.584;13.460;2023-04-23T00:19:02;0.98;;;0.98;;
45730;SDS011;31440;48.584;13.460;2023-04-23T00:22:06;0.75;;;0.75;;
45730;SDS011;31440;48.584;13.460;2023-04-23T00:25:11;2.30;;;2.20;;
45730;SDS011;31440;48.584;13.460;2023-04-23T00:28:15;1.08;;;1.08;;
45730;SDS011;31440;48.584;13.460;2023-04-23T00:31:20;0.75;;;0.75;;
45730;SDS011;31440;48.584;13.460;2023-04-23T00:34:26;0.75;;;0.75;;
45730;SDS011;31440;48.584;13.460;2023-04-23T00:37:30;0.80;;;0.80;;
45730;SDS011;31440;48.584;13.460;2023-04-23T00:40:35;0.88;;;0.88;;
45730;SDS011;31440;48.584;13.460;2023-04-23T00:43:40;1.20;;;1.20;;
45730;SDS011;31440;48.584;13.460;2023-04-23T00:46:45;0.88;;;0.88;;
45730;SDS011;31440;48.584;13.460;2023-04-23T00:49:49;1.08;;;1.08;;
45730;SDS011;31440;48.584;13.460;2023-04-23T00:52:55;0.80;;;0.80;;
45730;SDS011;31440;48.584;13.460;2023-04-23T00:56:01;1.35;;;1.35;;
45730;SDS011;31440;48.584;13.460;2023-04-23T01:02:14;1.70;;;1.65;;
45730;SDS011;31440;48.584;13.460;2023-04-23T01:05:20;1.08;;;1.08;;
45730;SDS011;31440;48.584;13.460;2023-04-23T01:08:27;1.45;;;1.45;;
45730;SDS011;31440;48.584;13.460;2023-04-23T01:11:32;1.67;;;1.65;;
45730;SDS011;31440;48.584;13.460;2023-04-23T01:14:37;1.35;;;1.30;;
45730;SDS011;31440;48.584;13.460;2023-04-23T01:20:48;0.98;;;0.98;;
45730;SDS011;31440;48.584;13.460;2023-04-23T01:23:54;1.13;;;1.13;;
45730;SDS011;31440;48.584;13.460;2023-04-23T01:26:59;1.00;;;1.00;;
45730;SDS011;31440;48.584;13.460;2023-04-23T01:30:04;0.80;;;0.80;;
45730;SDS011;31440;48.584;13.460;2023-04-23T01:33:10;1.10;;;1.10;;
45730;SDS011;31440;48.584;13.460;2023-04-23T01:39:21;1.17;;;1.17;;
45730;SDS011;31440;48.584;13.460;2023-04-23T01:42:26;1.00;;;1.00;;
45730;SDS011;31440;48.584;13.460;2023-04-23T01:45:31;0.90;;;0.90;;
45730;SDS011;31440;48.584;13.460;2023-04-23T01:48:36;1.23;;;1.23;;
45730;SDS011;31440;48.584;13.460;2023-04-23T01:51:41;1.30;;;1.30;;
45730;SDS011;31440;48.584;13.460;2023-04-23T01:57:52;1.63;;;1.55;;
45730;SDS011;31440;48.584;13.460;2023-04-23T02:00:57;0.90;;;0.90;;
45730;SDS011;31440;48.584;13.460;2023-04-23T02:04:01;0.98;;;0.98;;
45730;SDS011;31440;48.584;13.460;2023-04-23T02:07:06;0.98;;;0.98;;
45730;SDS011;31440;48.584;13.460;2023-04-23T02:10:12;0.95;;;0.95;;
45730;SDS011;31440;48.584;13.460;2023-04-23T02:13:16;1.00;;;1.00;;
45730;SDS011;31440;48.584;13.460;2023-04-23T02:16:21;0.88;;;0.88;;
45730;SDS011;31440;48.584;13.460;2023-04-23T02:19:27;0.90;;;0.90;;
45730;SDS011;31440;48.584;13.460;2023-04-23T02:22:35;1.00;;;1.00;;
45730;SDS011;31440;48.584;13.460;2023-04-23T02:25:41;0.70;;;0.70;;
45730;SDS011;31440;48.584;13.460;2023-04-23T02:28:46;1.17;;;1.17;;
45730;SDS011;31440;48.584;13.460;2023-04-23T02:31:51;0.95;;;0.95;;
45730;SDS011;31440;48.584;13.460;2023-04-23T02:34:58;0.75;;;0.75;;
45730;SDS011;31440;48.584;13.460;2023-04-23T02:38:03;0.98;;;0.98;;
45730;SDS011;31440;48.584;13.460;2023-04-23T02:41:07;1.10;;;1.10;;
45730;SDS011;31440;48.584;13.460;2023-04-23T02:44:12;0.73;;;0.73;;
45730;SDS011;31440;48.584;13.460;2023-04-23T02:47:17;0.85;;;0.85;;
45730;SDS011;31440;48.584;13.460;2023-04-23T02:50:21;0.95;;;0.95;;
45730;SDS011;31440;48.584;13.460;2023-04-23T02:53:26;0.95;;;0.95;;
45730;SDS011;31440;48.584;13.460;2023-04-23T02:56:30;1.02;;;1.02;;
45730;SDS011;31440;48.584;13.460;2023-04-23T02:59:35;0.80;;;0.80;;
45730;SDS011;31440;48.584;13.460;2023-04-23T03:02:39;0.80;;;0.80;;
45730;SDS011;31440;48.584;13.460;2023-04-23T03:05:44;0.98;;;0.98;;
45730;SDS011;31440;48.584;13.460;2023-04-23T03:08:49;0.90;;;0.90;;
45730;SDS011;31440;48.584;13.460;2023-04-23T03:11:53;0.98;;;0.98;;
45730;SDS011;31440;48.584;13.460;2023-04-23T03:15:00;0.80;;;0.80;;
45730;SDS011;31440;48.584;13.460;2023-04-23T03:18:08;1.08;;;1.08;;
45730;SDS011;31440;48.584;13.460;2023-04-23T03:21:13;0.90;;;0.90;;
45730;SDS011;31440;48.584;13.460;2023-04-23T03:27:23;1.00;;;1.00;;
45730;SDS011;31440;48.584;13.460;2023-04-23T03:30:28;0.75;;;0.75;;
45730;SDS011;31440;48.584;13.460;2023-04-23T03:33:33;1.15;;;1.15;;
45730;SDS011;31440;48.584;13.460;2023-04-23T03:36:39;2.38;;;2.28;;
45730;SDS011;31440;48.584;13.460;2023-04-23T03:39:44;2.17;;;2.08;;
45730;SDS011;31440;48.584;13.460;2023-04-23T03:42:50;1.02;;;1.02;;
45730;SDS011;31440;48.584;13.460;2023-04-23T03:45:59;1.17;;;1.17;;
45730;SDS011;31440;48.584;13.460;2023-04-23T03:49:05;11.30;;;10.90;;
45730;SDS011;31440;48.584;13.460;2023-04-23T03:52:10;14.73;;;14.13;;
45730;SDS011;31440;48.584;13.460;2023-04-23T03:55:16;22.73;;;21.67;;
45730;SDS011;31440;48.584;13.460;2023-04-23T03:58:24;16.92;;;16.25;;
45730;SDS011;31440;48.584;13.460;2023-04-23T04:01:28;12.75;;;12.25;;
45730;SDS011;31440;48.584;13.460;2023-04-23T04:04:33;13.57;;;13.07;;
45730;SDS011;31440;48.584;13.460;2023-04-23T04:07:38;12.60;;;12.10;;
45730;SDS011;31440;48.584;13.460;2023-04-23T04:10:43;13.30;;;12.73;;
45730;SDS011;31440;48.584;13.460;2023-04-23T04:13:48;12.93;;;12.43;;
45730;SDS011;31440;48.584;13.460;2023-04-23T04:16:54;11.43;;;11.02;;
45730;SDS011;31440;48.584;13.460;2023-04-23T04:19:58;14.90;;;14.30;;
45730;SDS011;31440;48.584;13.460;2023-04-23T04:23:03;12.38;;;11.88;;
45730;SDS011;31440;48.584;13.460;2023-04-23T04:26:08;12.90;;;12.40;;
45730;SDS011;31440;48.584;13.460;2023-04-23T04:29:12;12.00;;;11.60;;
45730;SDS011;31440;48.584;13.460;2023-04-23T04:35:23;11.57;;;11.18;;
45730;SDS011;31440;48.584;13.460;2023-04-23T04:38:28;12.52;;;12.02;;
45730;SDS011;31440;48.584;13.460;2023-04-23T04:41:33;11.77;;;11.38;;
45730;SDS011;31440;48.584;13.460;2023-04-23T04:44:37;12.80;;;12.30;;
45730;SDS011;31440;48.584;13.460;2023-04-23T04:47:42;11.43;;;11.02;;
45730;SDS011;31440;48.584;13.460;2023-04-23T04:50:47;10.98;;;10.57;;
45730;SDS011;31440;48.584;13.460;2023-04-23T04:53:51;12.15;;;11.65;;
45730;SDS011;31440;48.584;13.460;2023-04-23T04:56:56;11.40;;;11.00;;
45730;SDS011;31440;48.584;13.460;2023-04-23T05:00:01;10.80;;;10.40;;
45730;SDS011;31440;48.584;13.460;2023-04-23T05:03:21;12.45;;;11.90;;
45730;SDS011;31440;48.584;13.460;2023-04-23T05:06:26;11.85;;;11.35;;
45730;SDS011;31440;48.584;13.460;2023-04-23T05:09:31;15.15;;;14.45;;
45730;SDS011;31440;48.584;13.460;2023-04-23T05:12:36;12.00;;;11.52;;
45730;SDS011;31440;48.584;13.460;2023-04-23T05:15:44;9.85;;;9.48;;
45730;SDS011;31440;48.584;13.460;2023-04-23T05:18:49;10.93;;;10.52;;
45730;SDS011;31440;48.584;13.460;2023-04-23T05:21:55;11.38;;;10.98;;
45730;SDS011;31440;48.584;13.460;2023-04-23T05:24:59;12.73;;;12.13;;
45730;SDS011;31440;48.584;13.460;2023-04-23T05:31:11;11.77;;;11.23;;
45730;SDS011;31440;48.584;13.460;2023-04-23T05:34:16;13.48;;;12.88;;
45730;SDS011;31440;48.584;13.460;2023-04-23T05:37:20;12.95;;;12.35;;
45730;SDS011;31440;48.584;13.460;2023-04-23T05:40:25;9.23;;;8.93;;
45730;SDS011;31440;48.584;13.460;2023-04-23T05:43:30;10.48;;;10.07;;
45730;SDS011;31440;48.584;13.460;2023-04-23T05:46:34;10.80;;;10.40;;
45730;SDS011;31440;48.584;13.460;2023-04-23T05:49:41;10.50;;;10.10;;
45730;SDS011;31440;48.584;13.460;2023-04-23T05:52:45;10.43;;;10.02;;
45730;SDS011;31440;48.584;13.460;2023-04-23T05:55:50;10.48;;;10.07;;
45730;SDS011;31440;48.584;13.460;2023-04-23T05:58:54;8.82;;;8.52;;
45730;SDS011;31440;48.584;13.460;2023-04-23T06:01:59;10.43;;;10.02;;
45730;SDS011;31440;48.584;13.460;2023-04-23T06:08:10;9.70;;;9.38;;
45730;SDS011;31440;48.584;13.460;2023-04-23T06:11:15;10.98;;;10.57;;
45730;SDS011;31440;48.584;13.460;2023-04-23T06:14:19;9.75;;;9.45;;
45730;SDS011;31440;48.584;13.460;2023-04-23T06:17:24;9.15;;;8.85;;
45730;SDS011;31440;48.584;13.460;2023-04-23T06:20:29;9.77;;;9.48;;
45730;SDS011;31440;48.584;13.460;2023-04-23T06:23:33;9.70;;;9.38;;
45730;SDS011;31440;48.584;13.460;2023-04-23T06:26:38;10.38;;;9.98;;
45730;SDS011;31440;48.584;13.460;2023-04-23T06:29:49;10.38;;;9.98;;
45730;SDS011;31440;48.584;13.460;2023-04-23T06:32:53;10.25;;;9.85;;
45730;SDS011;31440;48.584;13.460;2023-04-23T06:35:58;11.88;;;11.35;;
45730;SDS011;31440;48.584;13.460;2023-04-23T06:39:04;10.13;;;9.73;;
45730;SDS011;31440;48.584;13.460;2023-04-23T06:42:08;9.32;;;9.02;;
45730;SDS011;31440;48.584;13.460;2023-04-23T06:45:27;9.82;;;9.48;;
45730;SDS011;31440;48.584;13.460;2023-04-23T06:48:34;9.45;;;9.15;;
45730;SDS011;31440;48.584;13.460;2023-04-23T06:51:39;12.63;;;12.10;;
45730;SDS011;31440;48.584;13.460;2023-04-23T06:54:43;12.63;;;12.02;;
45730;SDS011;31440;48.584;13.460;2023-04-23T06:57:50;9.20;;;8.90;;
45730;SDS011;31440;48.584;13.460;2023-04-23T07:00:56;9.35;;;9.05;;
45730;SDS011;31440;48.584;13.460;2023-04-23T07:04:06;9.20;;;8.90;;
45730;SDS011;31440;48.584;13.460;2023-04-23T07:07:11;10.52;;;10.13;;
45730;SDS011;31440;48.584;13.460;2023-04-23T07:10:16;9.18;;;8.88;;
45730;SDS011;31440;48.584;13.460;2023-04-23T07:13:21;13.10;;;12.50;;
45730;SDS011;31440;48.584;13.460;2023-04-23T07:16:27;10.68;;;10.25;;
45730;SDS011;31440;48.584;13.460;2023-04-23T07:19:35;10.70;;;10.30;;
45730;SDS011;31440;48.584;13.460;2023-04-23T07:22:40;9.18;;;8.88;;
45730;SDS011;31440;48.584;13.460;2023-04-23T07:25:44;10.50;;;10.10;;
45730;SDS011;31440;48.584;13.460;2023-04-23T07:28:49;9.45;;;9.13;;
45730;SDS011;31440;48.584;13.460;2023-04-23T07:31:56;9.23;;;8.93;;
45730;SDS011;31440;48.584;13.460;2023-04-23T07:35:00;10.35;;;9.95;;
45730;SDS011;31440;48.584;13.460;2023-04-23T07:38:05;9.25;;;8.88;;
45730;SDS011;31440;48.584;13.460;2023-04-23T07:41:10;8.75;;;8.45;;
45730;SDS011;31440;48.584;13.460;2023-04-23T07:44:14;9.90;;;9.50;;
45730;SDS011;31440;48.584;13.460;2023-04-23T07:47:19;10.70;;;10.30;;
45730;SDS011;31440;48.584;13.460;2023-04-23T07:50:23;10.18;;;9.77;;
45730;SDS011;31440;48.584;13.460;2023-04-23T07:53:28;8.73;;;8.43;;
45730;SDS011;31440;48.584;13.460;2023-04-23T07:56:33;9.95;;;9.55;;
45730;SDS011;31440;48.584;13.460;2023-04-23T07:59:39;9.60;;;9.27;;
45730;SDS011;31440;48.584;13.460;2023-04-23T08:02:43;9.60;;;9.30;;
45730;SDS011;31440;48.584;13.460;2023-04-23T08:05:48;10.00;;;9.60;;
45730;SDS011;31440;48.584;13.460;2023-04-23T08:08:53;10.30;;;9.90;;
45730;SDS011;31440;48.584;13.460;2023-04-23T08:11:59;9.30;;;9.00;;
45730;SDS011;31440;48.584;13.460;2023-04-23T08:15:05;9.68;;;9.38;;
45730;SDS011;31440;48.584;13.460;2023-04-23T08:18:15;9.38;;;9.07;;
45730;SDS011;31440;48.584;13.460;2023-04-23T08:21:19;9.40;;;9.10;;
45730;SDS011;31440;48.584;13.460;2023-04-23T08:24:25;10.82;;;10.43;;
45730;SDS011;31440;48.584;13.460;2023-04-23T08:27:32;12.82;;;12.25;;
45730;SDS011;31440;48.584;13.460;2023-04-23T08:30:37;11.05;;;10.65;;
45730;SDS011;31440;48.584;13.460;2023-04-23T08:33:41;10.73;;;10.32;;
45730;SDS011;31440;48.584;13.460;2023-04-23T08:36:46;10.82;;;10.43;;
45730;SDS011;31440;48.584;13.460;2023-04-23T08:39:52;9.48;;;9.18;;
45730;SDS011;31440;48.584;13.460;2023-04-23T08:42:57;10.95;;;10.55;;
45730;SDS011;31440;48.584;13.460;2023-04-23T08:46:05;14.75;;;14.10;;
45730;SDS011;31440;48.584;13.460;2023-04-23T08:49:16;10.25;;;9.85;;
45730;SDS011;31440;48.584;13.460;2023-04-23T08:52:22;10.45;;;10.05;;
45730;SDS011;31440;48.584;13.460;2023-04-23T08:55:28;10.07;;;9.68;;
45730;SDS011;31440;48.584;13.460;2023-04-23T08:58:34;10.32;;;9.93;;
45730;SDS011;31440;48.584;13.460;2023-04-23T09:01:40;10.13;;;9.73;;
45730;SDS011;31440;48.584;13.460;2023-04-23T09:04:45;10.27;;;9.88;;
45730;SDS011;31440;48.584;13.460;2023-04-23T09:07:52;11.30;;;10.85;;
45730;SDS011;31440;48.584;13.460;2023-04-23T09:10:58;10.00;;;9.60;;
45730;SDS011;31440;48.584;13.460;2023-04-23T09:14:04;10.18;;;9.77;;
45730;SDS011;31440;48.584;13.460;2023-04-23T09:17:09;11.43;;;11.02;;
45730;SDS011;31440;48.584;13.460;2023-04-23T09:20:13;10.40;;;10.00;;
45730;SDS011;31440;48.584;13.460;2023-04-23T09:23:20;13.13;;;12.55;;
45730;SDS011;31440;48.584;13.460;2023-04-23T09:26:26;10.73;;;10.32;;
45730;SDS011;31440;48.584;13.460;2023-04-23T09:29:31;12.63;;;12.15;;
45730;SDS011;31440;48.584;13.460;2023-04-23T09:32:36;13.13;;;12.63;;
45730;SDS011;31440;48.584;13.460;2023-04-23T09:35:42;13.70;;;13.10;;
45730;SDS011;31440;48.584;13.460;2023-04-23T09:41:53;10.77;;;10.38;;
45730;SDS011;31440;48.584;13.460;2023-04-23T09:44:59;10.65;;;10.25;;
45730;SDS011;31440;48.584;13.460;2023-04-23T09:48:06;10.50;;;10.10;;
45730;SDS011;31440;48.584;13.460;2023-04-23T09:51:12;11.18;;;10.77;;
45730;SDS011;31440;48.584;13.460;2023-04-23T09:54:21;12.32;;;11.73;;
45730;SDS011;31440;48.584;13.460;2023-04-23T09:57:27;11.73;;;11.23;;
45730;SDS011;31440;48.584;13.460;2023-04-23T10:00:35;10.68;;;10.27;;
45730;SDS011;31440;48.584;13.460;2023-04-23T10:03:41;9.65;;;9.35;;
45730;SDS011;31440;48.584;13.460;2023-04-23T10:06:48;11.32;;;10.93;;
45730;SDS011;31440;48.584;13.460;2023-04-23T10:10:00;9.73;;;9.43;;
45730;SDS011;31440;48.584;13.460;2023-04-23T10:13:05;10.07;;;9.70;;
45730;SDS011;31440;48.584;13.460;2023-04-23T10:16:10;10.43;;;10.02;;
45730;SDS011;31440;48.584;13.460;2023-04-23T10:19:27;10.48;;;10.07;;
45730;SDS011;31440;48.584;13.460;2023-04-23T10:22:33;10.20;;;9.80;;
45730;SDS011;31440;48.584;13.460;2023-04-23T10:25:38;9.85;;;9.52;;
45730;SDS011;31440;48.584;13.460;2023-04-23T10:28:46;10.63;;;10.23;;
45730;SDS011;31440;48.584;13.460;2023-04-23T10:31:52;11.02;;;10.63;;
45730;SDS011;31440;48.584;13.460;2023-04-23T10:34:58;11.00;;;10.55;;
45730;SDS011;31440;48.584;13.460;2023-04-23T10:38:03;12.85;;;12.25;;
45730;SDS011;31440;48.584;13.460;2023-04-23T10:41:08;9.55;;;9.25;;
45730;SDS011;31440;48.584;13.460;2023-04-23T10:44:14;10.32;;;9.93;;
45730;SDS011;31440;48.584;13.460;2023-04-23T10:47:44;9.57;;;9.27;;
45730;SDS011;31440;48.584;13.460;2023-04-23T10:50:55;9.95;;;9.57;;
45730;SDS011;31440;48.584;13.460;2023-04-23T10:54:21;10.38;;;9.98;;
45730;SDS011;31440;48.584;13.460;2023-04-23T10:57:34;10.23;;;9.82;;
45730;SDS011;31440;48.584;13.460;2023-04-23T11:01:09;10.13;;;9.75;;
45730;SDS011;31440;48.584;13.460;2023-04-23T11:04:20;10.75;;;10.35;;
45730;SDS011;31440;48.584;13.460;2023-04-23T11:07:30;11.13;;;10.73;;
45730;SDS011;31440;48.584;13.460;2023-04-23T11:10:50;10.70;;;10.30;;
45730;SDS011;31440;48.584;13.460;2023-04-23T11:14:01;10.43;;;10.02;;
45730;SDS011;31440;48.584;13.460;2023-04-23T11:17:15;11.32;;;10.93;;
45730;SDS011;31440;48.584;13.460;2023-04-23T11:20:22;11.38;;;10.98;;
45730;SDS011;31440;48.584;13.460;2023-04-23T11:23:30;13.15;;;12.57;;
45730;SDS011;31440;48.584;13.460;2023-04-23T11:29:43;11.88;;;11.48;;
45730;SDS011;31440;48.584;13.460;2023-04-23T11:32:49;11.15;;;10.75;;
45730;SDS011;31440;48.584;13.460;2023-04-23T11:35:55;12.23;;;11.82;;
45730;SDS011;31440;48.584;13.460;2023-04-23T11:39:00;11.48;;;11.07;;
45730;SDS011;31440;48.584;13.460;2023-04-23T11:42:09;12.00;;;11.60;;
45730;SDS011;31440;48.584;13.460;2023-04-23T11:45:15;12.05;;;11.65;;
45730;SDS011;31440;48.584;13.460;2023-04-23T11:48:23;11.00;;;10.60;;
45730;SDS011;31440;48.584;13.460;2023-04-23T11:51:27;10.70;;;10.30;;
45730;SDS011;31440;48.584;13.460;2023-04-23T11:54:32;11.75;;;11.35;;
45730;SDS011;31440;48.584;13.460;2023-04-23T11:57:44;12.77;;;12.25;;
45730;SDS011;31440;48.584;13.460;2023-04-23T12:00:55;32.35;;;31.00;;
45730;SDS011;31440;48.584;13.460;2023-04-23T12:04:08;15.60;;;14.98;;
45730;SDS011;31440;48.584;13.460;2023-04-23T12:07:30;12.30;;;11.88;;
45730;SDS011;31440;48.584;13.460;2023-04-23T12:10:45;12.63;;;12.13;;
45730;SDS011;31440;48.584;13.460;2023-04-23T12:13:49;11.82;;;11.43;;
45730;SDS011;31440;48.584;13.460;2023-04-23T12:20:03;14.02;;;13.43;;
45730;SDS011;31440;48.584;13.460;2023-04-23T12:23:10;13.40;;;12.90;;
45730;SDS011;31440;48.584;13.460;2023-04-23T12:26:14;12.88;;;12.38;;
45730;SDS011;31440;48.584;13.460;2023-04-23T12:29:20;12.32;;;11.90;;
45730;SDS011;31440;48.584;13.460;2023-04-23T12:32:26;15.40;;;14.75;;
45730;SDS011;31440;48.584;13.460;2023-04-23T12:38:36;12.57;;;12.07;;
45730;SDS011;31440;48.584;13.460;2023-04-23T12:41:42;13.60;;;13.10;;
45730;SDS011;31440;48.584;13.460;2023-04-23T12:44:46;13.23;;;12.73;;
45730;SDS011;31440;48.584;13.460;2023-04-23T12:50:57;13.73;;;13.23;;
45730;SDS011;31440;48.584;13.460;2023-04-23T12:54:02;12.65;;;12.15;;
45730;SDS011;31440;48.584;13.460;2023-04-23T12:57:07;13.45;;;12.95;;
45730;SDS011;31440;48.584;13.460;2023-04-23T13:00:14;14.18;;;13.68;;
45730;SDS011;31440;48.584;13.460;2023-04-23T13:03:19;14.00;;;13.50;;
45730;SDS011;31440;48.584;13.460;2023-04-23T13:06:24;12.80;;;12.30;;
45730;SDS011;31440;48.584;13.460;2023-04-23T13:09:29;13.02;;;12.52;;
45730;SDS011;31440;48.584;13.460;2023-04-23T13:12:34;17.35;;;16.58;;
45730;SDS011;31440;48.584;13.460;2023-04-23T13:15:40;14.70;;;14.20;;
45730;SDS011;31440;48.584;13.460;2023-04-23T13:18:45;14.57;;;14.07;;
45730;SDS011;31440;48.584;13.460;2023-04-23T13:21:50;15.75;;;15.15;;
45730;SDS011;31440;48.584;13.460;2023-04-23T13:24:54;18.15;;;17.45;;
45730;SDS011;31440;48.584;13.460;2023-04-23T13:28:02;20.13;;;19.33;;
45730;SDS011;31440;48.584;13.460;2023-04-23T13:31:07;23.88;;;22.88;;
45730;SDS011;31440;48.584;13.460;2023-04-23T13:34:15;24.33;;;23.25;;
45730;SDS011;31440;48.584;13.460;2023-04-23T13:37:19;23.65;;;22.70;;
45730;SDS011;31440;48.584;13.460;2023-04-23T13:40:24;26.90;;;25.80;;
45730;SDS011;31440;48.584;13.460;2023-04-23T13:43:28;29.77;;;28.58;;
45730;SDS011;31440;48.584;13.460;2023-04-23T13:46:33;32.50;;;31.20;;
45730;SDS011;31440;48.584;13.460;2023-04-23T13:49:37;31.67;;;30.38;;
45730;SDS011;31440;48.584;13.460;2023-04-23T13:52:42;29.92;;;28.70;;
45730;SDS011;31440;48.584;13.460;2023-04-23T13:58:52;32.20;;;30.90;;
45730;SDS011;31440;48.584;13.460;2023-04-23T14:02:11;32.67;;;31.27;;
45730;SDS011;31440;48.584;13.460;2023-04-23T14:05:16;33.28;;;31.95;;
45730;SDS011;31440;48.584;13.460;2023-04-23T14:08:20;30.52;;;29.27;;
45730;SDS011;31440;48.584;13.460;2023-04-23T14:11:25;31.92;;;30.58;;
45730;SDS011;31440;48.584;13.460;2023-04-23T14:17:36;35.42;;;33.90;;
45730;SDS011;31440;48.584;13.460;2023-04-23T14:20:43;31.23;;;29.92;;
45730;SDS011;31440;48.584;13.460;2023-04-23T14:23:49;32.20;;;30.88;;
45730;SDS011;31440;48.584;13.460;2023-04-23T14:26:58;33.40;;;32.03;;
45730;SDS011;31440;48.584;13.460;2023-04-23T14:30:04;31.33;;;29.85;;
45730;SDS011;31440;48.584;13.460;2023-04-23T14:33:09;30.70;;;29.40;;
45730;SDS011;31440;48.584;13.460;2023-04-23T14:36:14;29.02;;;27.83;;
45730;SDS011;31440;48.584;13.460;2023-04-23T14:39:20;29.98;;;28.77;;
45730;SDS011;31440;48.584;13.460;2023-04-23T14:42:29;32.28;;;30.98;;
45730;SDS011;31440;48.584;13.460;2023-04-23T14:48:39;34.97;;;33.35;;
45730;SDS011;31440;48.584;13.460;2023-04-23T14:51:44;34.95;;;33.55;;
45730;SDS011;31440;48.584;13.460;2023-04-23T14:54:48;34.25;;;32.85;;
45730;SDS011;31440;48.584;13.460;2023-04-23T14:57:53;33.55;;;32.15;;
45730;SDS011;31440;48.584;13.460;2023-04-23T15:00:58;36.90;;;35.40;;
45730;SDS011;31440;48.584;13.460;2023-04-23T15:04:02;35.40;;;34.00;;
45730;SDS011;31440;48.584;13.460;2023-04-23T15:07:07;34.83;;;33.40;;
45730;SDS011;31440;48.584;13.460;2023-04-23T15:10:12;37.15;;;35.65;;
45730;SDS011;31440;48.584;13.460;2023-04-23T15:13:30;34.03;;;32.63;;
45730;SDS011;31440;48.584;13.460;2023-04-23T15:16:41;34.78;;;33.38;;
45730;SDS011;31440;48.584;13.460;2023-04-23T15:19:52;35.22;;;33.72;;
45730;SDS011;31440;48.584;13.460;2023-04-23T15:22:59;37.92;;;36.35;;
45730;SDS011;31440;48.584;13.460;2023-04-23T15:26:03;35.25;;;33.83;;
45730;SDS011;31440;48.584;13.460;2023-04-23T15:29:08;38.35;;;36.53;;
45730;SDS011;31440;48.584;13.460;2023-04-23T15:32:13;35.60;;;34.10;;
45730;SDS011;31440;48.584;13.460;2023-04-23T15:35:17;35.80;;;34.30;;
45730;SDS011;31440;48.584;13.460;2023-04-23T15:38:22;35.95;;;34.45;;
45730;SDS011;31440;48.584;13.460;2023-04-23T15:41:27;34.70;;;33.30;;
45730;SDS011;31440;48.584;13.460;2023-04-23T15:44:32;34.80;;;33.40;;
45730;SDS011;31440;48.584;13.460;2023-04-23T15:47:36;35.55;;;34.05;;
45730;SDS011;31440;48.584;13.460;2023-04-23T15:50:42;35.60;;;34.20;;
45730;SDS011;31440;48.584;13.460;2023-04-23T15:53:46;36.33;;;34.83;;
45730;SDS011;31440;48.584;13.460;2023-04-23T15:56:51;36.13;;;34.50;;
45730;SDS011;31440;48.584;13.460;2023-04-23T15:59:55;35.35;;;33.85;;
45730;SDS011;31440;48.584;13.460;2023-04-23T16:03:00;33.92;;;32.53;;
45730;SDS011;31440;48.584;13.460;2023-04-23T16:06:09;37.38;;;35.88;;
45730;SDS011;31440;48.584;13.460;2023-04-23T16:09:15;36.85;;;35.35;;
45730;SDS011;31440;48.584;13.460;2023-04-23T16:12:20;35.50;;;34.05;;
45730;SDS011;31440;48.584;13.460;2023-04-23T16:15:24;34.92;;;33.53;;
45730;SDS011;31440;48.584;13.460;2023-04-23T16:18:29;34.10;;;32.70;;
45730;SDS011;31440;48.584;13.460;2023-04-23T16:21:34;36.13;;;34.53;;
45730;SDS011;31440;48.584;13.460;2023-04-23T16:24:41;31.92;;;30.63;;
45730;SDS011;31440;48.584;13.460;2023-04-23T16:27:45;30.02;;;28.83;;
45730;SDS011;31440;48.584;13.460;2023-04-23T16:30:50;27.23;;;26.13;;
45730;SDS011;31440;48.584;13.460;2023-04-23T16:33:54;31.38;;;29.95;;
45730;SDS011;31440;48.584;13.460;2023-04-23T16:36:59;27.48;;;26.38;;
45730;SDS011;31440;48.584;13.460;2023-04-23T16:40:04;28.52;;;27.33;;
45730;SDS011;31440;48.584;13.460;2023-04-23T16:43:09;29.63;;;28.40;;
45730;SDS011;31440;48.584;13.460;2023-04-23T16:49:20;30.38;;;29.08;;
45730;SDS011;31440;48.584;13.460;2023-04-23T16:52:25;29.58;;;28.30;;
45730;SDS011;31440;48.584;13.460;2023-04-23T16:55:29;28.77;;;27.58;;
45730;SDS011;31440;48.584;13.460;2023-04-23T16:58:34;29.70;;;28.50;;
45730;SDS011;31440;48.584;13.460;2023-04-23T17:01:39;34.40;;;32.35;;
45730;SDS011;31440;48.584;13.460;2023-04-23T17:04:44;28.65;;;27.35;;
45730;SDS011;31440;48.584;13.460;2023-04-23T17:07:49;31.95;;;30.48;;
45730;SDS011;31440;48.584;13.460;2023-04-23T17:10:55;29.15;;;27.95;;
45730;SDS011;31440;48.584;13.460;2023-04-23T17:14:00;27.10;;;25.90;;
45730;SDS011;31440;48.584;13.460;2023-04-23T17:20:09;33.00;;;31.50;;
45730;SDS011;31440;48.584;13.460;2023-04-23T17:23:14;29.35;;;28.00;;
45730;SDS011;31440;48.584;13.460;2023-04-23T17:26:18;29.92;;;28.70;;
45730;SDS011;31440;48.584;13.460;2023-04-23T17:29:23;27.80;;;26.50;;
45730;SDS011;31440;48.584;13.460;2023-04-23T17:32:27;29.90;;;28.60;;
45730;SDS011;31440;48.584;13.460;2023-04-23T17:35:32;29.45;;;28.25;;
45730;SDS011;31440;48.584;13.460;2023-04-23T17:38:37;28.60;;;27.25;;
45730;SDS011;31440;48.584;13.460;2023-04-23T17:41:41;33.35;;;31.75;;
45730;SDS011;31440;48.584;13.460;2023-04-23T17:44:45;31.50;;;29.98;;
45730;SDS011;31440;48.584;13.460;2023-04-23T17:50:56;26.58;;;25.50;;
45730;SDS011;31440;48.584;13.460;2023-04-23T17:54:01;27.42;;;26.23;;
45730;SDS011;31440;48.584;13.460;2023-04-23T17:57:05;29.73;;;27.92;;
45730;SDS011;31440;48.584;13.460;2023-04-23T18:03:23;36.35;;;33.83;;
45730;SDS011;31440;48.584;13.460;2023-04-23T18:06:28;36.35;;;34.13;;
45730;SDS011;31440;48.584;13.460;2023-04-23T18:09:32;30.27;;;28.88;;
45730;SDS011;31440;48.584;13.460;2023-04-23T18:12:37;33.28;;;31.42;;
45730;SDS011;31440;48.584;13.460;2023-04-23T18:15:42;28.48;;;27.02;;
45730;SDS011;31440;48.584;13.460;2023-04-23T18:18:52;24.77;;;23.70;;
45730;SDS011;31440;48.584;13.460;2023-04-23T18:21:57;23.73;;;22.77;;
45730;SDS011;31440;48.584;13.460;2023-04-23T18:25:05;1.65;;;1.65;;
45730;SDS011;31440;48.584;13.460;2023-04-23T18:28:12;1.00;;;1.00;;
45730;SDS011;31440;48.584;13.460;2023-04-23T18:31:17;1.83;;;1.75;;
45730;SDS011;31440;48.584;13.460;2023-04-23T18:34:21;2.70;;;2.60;;
45730;SDS011;31440;48.584;13.460;2023-04-23T18:40:35;1.15;;;1.15;;
45730;SDS011;31440;48.584;13.460;2023-04-23T18:43:40;2.65;;;2.55;;
45730;SDS011;31440;48.584;13.460;2023-04-23T18:46:45;1.08;;;1.08;;
45730;SDS011;31440;48.584;13.460;2023-04-23T18:49:54;0.85;;;0.85;;
45730;SDS011;31440;48.584;13.460;2023-04-23T18:53:03;1.00;;;1.00;;
45730;SDS011;31440;48.584;13.460;2023-04-23T18:56:08;0.98;;;0.98;;
45730;SDS011;31440;48.584;13.460;2023-04-23T19:02:27;1.00;;;1.00;;
45730;SDS011;31440;48.584;13.460;2023-04-23T19:05:37;0.93;;;0.93;;
45730;SDS011;31440;48.584;13.460;2023-04-23T19:08:42;0.93;;;0.93;;
45730;SDS011;31440;48.584;13.460;2023-04-23T19:11:47;1.15;;;1.15;;
45730;SDS011;31440;48.584;13.460;2023-04-23T19:14:51;1.35;;;1.35;;